sensor_id;sensor_type;location;lat;lon;timestamp;pressure;altitude;pressure_sealevel;temperature;humidity
56831;BME280;42713;42.676;23.352;2023-04-23T00:00:30;94732.75;;;12.02;58.51
56831;BME280;42713;42.676;23.352;2023-04-23T00:02:56;94733.47;;;11.97;58.56
56831;BME280;42713;42.676;23.352;2023-04-23T00:05:26;94727.13;;;11.93;59.05
56831;BME280;42713;42.676;23.352;2023-04-23T00:07:52;94728.69;;;11.89;59.38
56831;BME280;42713;42.676;23.352;2023-04-23T00:10:18;94728.34;;;11.80;58.99
56831;BME280;42713;42.676;23.352;2023-04-23T00:12:44;94730.69;;;11.76;59.21
56831;BME280;42713;42.676;23.352;2023-04-23T00:15:10;94736.19;;;11.75;59.54
56831;BME280;42713;42.676;23.352;2023-04-23T00:17:36;94726.94;;;11.72;59.79
56831;BME280;42713;42.676;23.352;2023-04-23T00:20:02;94731.91;;;11.68;59.83
56831;BME280;42713;42.676;23.352;2023-04-23T00:22:27;94727.97;;;11.66;59.32
56831;BME280;42713;42.676;23.352;2023-04-23T00:24:53;94737.66;;;11.65;59.38
56831;BME280;42713;42.676;23.352;2023-04-23T00:27:18;94733.69;;;11.63;59.27
56831;BME280;42713;42.676;23.352;2023-04-23T00:29:45;94731.50;;;11.55;59.26
56831;BME280;42713;42.676;23.352;2023-04-23T00:32:11;94737.03;;;11.53;60.19
56831;BME280;42713;42.676;23.352;2023-04-23T00:34:36;94732.50;;;11.48;59.68
56831;BME280;42713;42.676;23.352;2023-04-23T00:37:02;94730.88;;;11.42;60.40
56831;BME280;42713;42.676;23.352;2023-04-23T00:39:31;94725.88;;;11.41;59.71
56831;BME280;42713;42.676;23.352;2023-04-23T00:41:57;94726.13;;;11.39;59.62
56831;BME280;42713;42.676;23.352;2023-04-23T00:44:24;94722.47;;;11.40;59.61
56831;BME280;42713;42.676;23.352;2023-04-23T00:46:50;94721.13;;;11.37;59.06
56831;BME280;42713;42.676;23.352;2023-04-23T00:49:18;94725.09;;;11.40;60.10
56831;BME280;42713;42.676;23.352;2023-04-23T00:51:43;94721.13;;;11.37;59.80
56831;BME280;42713;42.676;23.352;2023-04-23T00:54:08;94720.59;;;11.35;59.84
56831;BME280;42713;42.676;23.352;2023-04-23T00:56:34;94729.72;;;11.33;59.77
56831;BME280;42713;42.676;23.352;2023-04-23T00:58:59;94726.81;;;11.29;60.03
56831;BME280;42713;42.676;23.352;2023-04-23T01:01:27;94728.06;;;11.21;60.25
56831;BME280;42713;42.676;23.352;2023-04-23T01:03:54;94731.16;;;11.18;60.59
56831;BME280;42713;42.676;23.352;2023-04-23T01:06:21;94733.78;;;11.18;60.28
56831;BME280;42713;42.676;23.352;2023-04-23T01:08:49;94734.50;;;11.14;60.58
56831;BME280;42713;42.676;23.352;2023-04-23T01:11:15;94734.94;;;11.05;60.84
56831;BME280;42713;42.676;23.352;2023-04-23T01:13:42;94730.66;;;10.99;60.89
56831;BME280;42713;42.676;23.352;2023-04-23T01:16:08;94724.63;;;10.99;61.37
56831;BME280;42713;42.676;23.352;2023-04-23T01:18:33;94724.63;;;10.99;61.39
56831;BME280;42713;42.676;23.352;2023-04-23T01:20:59;94719.88;;;10.96;60.75
56831;BME280;42713;42.676;23.352;2023-04-23T01:23:26;94722.94;;;10.87;60.61
56831;BME280;42713;42.676;23.352;2023-04-23T01:25:53;94729.63;;;10.78;61.61
56831;BME280;42713;42.676;23.352;2023-04-23T01:28:18;94726.88;;;10.68;61.67
56831;BME280;42713;42.676;23.352;2023-04-23T01:30:46;94723.69;;;10.66;61.92
56831;BME280;42713;42.676;23.352;2023-04-23T01:33:13;94724.19;;;10.63;61.77
56831;BME280;42713;42.676;23.352;2023-04-23T01:35:39;94727.84;;;10.62;61.62
56831;BME280;42713;42.676;23.352;2023-04-23T01:38:06;94738.72;;;10.53;62.13
56831;BME280;42713;42.676;23.352;2023-04-23T01:40:33;94740.56;;;10.53;62.29
56831;BME280;42713;42.676;23.352;2023-04-23T01:42:59;94732.41;;;10.49;61.76
56831;BME280;42713;42.676;23.352;2023-04-23T01:45:24;94738.91;;;10.47;62.23
56831;BME280;42713;42.676;23.352;2023-04-23T01:47:50;94740.66;;;10.41;62.07
56831;BME280;42713;42.676;23.352;2023-04-23T01:50:16;94738.94;;;10.35;62.01
56831;BME280;42713;42.676;23.352;2023-04-23T01:52:42;94738.66;;;10.31;62.78
56831;BME280;42713;42.676;23.352;2023-04-23T01:55:10;94746.66;;;10.24;62.52
56831;BME280;42713;42.676;23.352;2023-04-23T01:57:35;94741.34;;;10.19;63.13
56831;BME280;42713;42.676;23.352;2023-04-23T02:00:06;94740.25;;;10.15;63.16
56831;BME280;42713;42.676;23.352;2023-04-23T02:02:36;94741.25;;;10.14;62.82
56831;BME280;42713;42.676;23.352;2023-04-23T02:05:02;94743.50;;;10.05;63.39
56831;BME280;42713;42.676;23.352;2023-04-23T02:07:32;94739.06;;;10.06;63.48
56831;BME280;42713;42.676;23.352;2023-04-23T02:09:58;94735.66;;;10.05;63.76
56831;BME280;42713;42.676;23.352;2023-04-23T02:12:24;94745.88;;;10.07;63.95
56831;BME280;42713;42.676;23.352;2023-04-23T02:14:50;94745.72;;;9.96;64.03
56831;BME280;42713;42.676;23.352;2023-04-23T02:17:17;94744.69;;;9.97;64.33
56831;BME280;42713;42.676;23.352;2023-04-23T02:19:43;94746.59;;;10.02;63.93
56831;BME280;42713;42.676;23.352;2023-04-23T02:22:08;94750.00;;;10.03;64.47
56831;BME280;42713;42.676;23.352;2023-04-23T02:24:34;94745.88;;;10.07;64.66
56831;BME280;42713;42.676;23.352;2023-04-23T02:27:00;94739.06;;;10.06;64.56
56831;BME280;42713;42.676;23.352;2023-04-23T02:29:26;94746.91;;;10.06;64.68
56831;BME280;42713;42.676;23.352;2023-04-23T02:31:51;94748.19;;;10.03;64.63
56831;BME280;42713;42.676;23.352;2023-04-23T02:34:17;94745.50;;;9.98;64.79
56831;BME280;42713;42.676;23.352;2023-04-23T02:36:43;94740.88;;;10.05;63.86
56831;BME280;42713;42.676;23.352;2023-04-23T02:39:08;94749.69;;;9.99;63.82
56831;BME280;42713;42.676;23.352;2023-04-23T02:41:34;94752.31;;;9.99;63.41
56831;BME280;42713;42.676;23.352;2023-04-23T02:43:59;94750.22;;;10.01;62.99
56831;BME280;42713;42.676;23.352;2023-04-23T02:46:25;94750.88;;;9.91;63.52
56831;BME280;42713;42.676;23.352;2023-04-23T02:48:50;94741.28;;;9.80;64.37
56831;BME280;42713;42.676;23.352;2023-04-23T02:51:16;94744.59;;;9.75;64.46
56831;BME280;42713;42.676;23.352;2023-04-23T02:53:41;94744.84;;;9.74;64.33
56831;BME280;42713;42.676;23.352;2023-04-23T02:56:06;94743.72;;;9.70;64.31
56831;BME280;42713;42.676;23.352;2023-04-23T02:58:32;94748.38;;;9.68;64.98
56831;BME280;42713;42.676;23.352;2023-04-23T03:00:58;94752.25;;;9.65;64.58
56831;BME280;42713;42.676;23.352;2023-04-23T03:03:26;94753.22;;;9.59;64.57
56831;BME280;42713;42.676;23.352;2023-04-23T03:05:55;94748.13;;;9.52;64.76
56831;BME280;42713;42.676;23.352;2023-04-23T03:08:21;94755.97;;;9.52;65.30
56831;BME280;42713;42.676;23.352;2023-04-23T03:10:46;94749.84;;;9.46;65.26
56831;BME280;42713;42.676;23.352;2023-04-23T03:13:12;94754.84;;;9.48;65.28
56831;BME280;42713;42.676;23.352;2023-04-23T03:15:39;94757.13;;;9.44;65.15
56831;BME280;42713;42.676;23.352;2023-04-23T03:18:04;94758.97;;;9.44;65.04
56831;BME280;42713;42.676;23.352;2023-04-23T03:20:33;94760.81;;;9.31;65.78
56831;BME280;42713;42.676;23.352;2023-04-23T03:22:58;94765.94;;;9.26;65.79
56831;BME280;42713;42.676;23.352;2023-04-23T03:25:24;94765.59;;;9.34;66.15
56831;BME280;42713;42.676;23.352;2023-04-23T03:27:51;94761.47;;;9.39;65.70
56831;BME280;42713;42.676;23.352;2023-04-23T03:30:16;94767.75;;;9.26;66.14
56831;BME280;42713;42.676;23.352;2023-04-23T03:32:42;94766.03;;;9.31;65.86
56831;BME280;42713;42.676;23.352;2023-04-23T03:35:08;94769.75;;;9.35;65.55
56831;BME280;42713;42.676;23.352;2023-04-23T03:37:34;94761.84;;;9.30;65.86
56831;BME280;42713;42.676;23.352;2023-04-23T03:39:59;94773.31;;;9.29;65.73
56831;BME280;42713;42.676;23.352;2023-04-23T03:42:31;94780.91;;;9.31;65.33
56831;BME280;42713;42.676;23.352;2023-04-23T03:44:56;94778.09;;;9.32;65.27
56831;BME280;42713;42.676;23.352;2023-04-23T03:47:21;94777.06;;;9.33;65.78
56831;BME280;42713;42.676;23.352;2023-04-23T03:49:48;94777.84;;;9.34;66.01
56831;BME280;42713;42.676;23.352;2023-04-23T03:52:13;94775.38;;;9.27;66.35
56831;BME280;42713;42.676;23.352;2023-04-23T03:54:39;94780.59;;;9.27;65.81
56831;BME280;42713;42.676;23.352;2023-04-23T03:57:04;94779.56;;;9.28;65.67
56831;BME280;42713;42.676;23.352;2023-04-23T03:59:30;94784.72;;;9.23;66.09
56831;BME280;42713;42.676;23.352;2023-04-23T04:01:56;94780.50;;;9.22;66.13
56831;BME280;42713;42.676;23.352;2023-04-23T04:04:22;94789.44;;;9.26;66.16
56831;BME280;42713;42.676;23.352;2023-04-23T04:06:48;94793.13;;;9.25;65.84
56831;BME280;42713;42.676;23.352;2023-04-23T04:09:13;94782.41;;;9.27;65.67
56831;BME280;42713;42.676;23.352;2023-04-23T04:11:39;94787.66;;;9.27;66.05
56831;BME280;42713;42.676;23.352;2023-04-23T04:14:05;94781.41;;;9.28;65.73
56831;BME280;42713;42.676;23.352;2023-04-23T04:16:30;94794.69;;;9.26;66.41
56831;BME280;42713;42.676;23.352;2023-04-23T04:18:56;94793.91;;;9.26;66.74
56831;BME280;42713;42.676;23.352;2023-04-23T04:21:21;94788.09;;;9.24;66.50
56831;BME280;42713;42.676;23.352;2023-04-23T04:23:47;94793.81;;;9.21;66.40
56831;BME280;42713;42.676;23.352;2023-04-23T04:26:12;94787.53;;;9.22;66.45
56831;BME280;42713;42.676;23.352;2023-04-23T04:28:39;94792.44;;;9.18;66.74
56831;BME280;42713;42.676;23.352;2023-04-23T04:31:05;94795.38;;;9.22;66.57
56831;BME280;42713;42.676;23.352;2023-04-23T04:33:33;94802.88;;;9.18;67.09
56831;BME280;42713;42.676;23.352;2023-04-23T04:36:00;94799.38;;;9.24;67.21
56831;BME280;42713;42.676;23.352;2023-04-23T04:38:25;94801.50;;;9.27;66.81
56831;BME280;42713;42.676;23.352;2023-04-23T04:40:54;94812.53;;;9.29;66.79
56831;BME280;42713;42.676;23.352;2023-04-23T04:43:23;94804.69;;;9.29;66.48
56831;BME280;42713;42.676;23.352;2023-04-23T04:45:48;94810.56;;;9.37;66.50
56831;BME280;42713;42.676;23.352;2023-04-23T04:48:15;94810.44;;;9.43;66.49
56831;BME280;42713;42.676;23.352;2023-04-23T04:50:40;94813.16;;;9.48;66.66
56831;BME280;42713;42.676;23.352;2023-04-23T04:53:06;94809.97;;;9.46;66.49
56831;BME280;42713;42.676;23.352;2023-04-23T04:55:31;94819.03;;;9.56;66.33
56831;BME280;42713;42.676;23.352;2023-04-23T04:57:56;94818.91;;;9.62;66.57
56831;BME280;42713;42.676;23.352;2023-04-23T05:00:25;94822.09;;;9.64;65.92
56831;BME280;42713;42.676;23.352;2023-04-23T05:02:54;94821.59;;;9.68;66.36
56831;BME280;42713;42.676;23.352;2023-04-23T05:05:21;94819.88;;;9.73;66.44
56831;BME280;42713;42.676;23.352;2023-04-23T05:07:47;94812.91;;;9.79;65.90
56831;BME280;42713;42.676;23.352;2023-04-23T05:10:13;94815.84;;;9.82;65.61
56831;BME280;42713;42.676;23.352;2023-04-23T05:12:40;94825.06;;;9.85;65.46
56831;BME280;42713;42.676;23.352;2023-04-23T05:15:10;94825.41;;;9.89;65.91
56831;BME280;42713;42.676;23.352;2023-04-23T05:17:40;94822.28;;;9.92;65.32
56831;BME280;42713;42.676;23.352;2023-04-23T05:20:06;94829.69;;;9.95;65.85
56831;BME280;42713;42.676;23.352;2023-04-23T05:22:38;94813.75;;;9.96;65.31
56831;BME280;42713;42.676;23.352;2023-04-23T05:25:06;94820.66;;;10.03;65.28
56831;BME280;42713;42.676;23.352;2023-04-23T05:27:32;94819.16;;;10.07;65.96
56831;BME280;42713;42.676;23.352;2023-04-23T05:30:00;94815.25;;;10.09;65.77
56831;BME280;42713;42.676;23.352;2023-04-23T05:32:26;94824.94;;;10.09;64.92
56831;BME280;42713;42.676;23.352;2023-04-23T05:34:51;94814.47;;;10.09;65.53
56831;BME280;42713;42.676;23.352;2023-04-23T05:37:17;94824.00;;;10.15;65.96
56831;BME280;42713;42.676;23.352;2023-04-23T05:39:43;94821.16;;;10.17;65.61
56831;BME280;42713;42.676;23.352;2023-04-23T05:42:10;94822.97;;;10.16;65.40
56831;BME280;42713;42.676;23.352;2023-04-23T05:44:35;94826.47;;;10.22;64.67
56831;BME280;42713;42.676;23.352;2023-04-23T05:47:01;94820.44;;;10.21;65.19
56831;BME280;42713;42.676;23.352;2023-04-23T05:49:26;94827.81;;;10.24;65.35
56831;BME280;42713;42.676;23.352;2023-04-23T05:51:52;94833.13;;;10.30;65.59
56831;BME280;42713;42.676;23.352;2023-04-23T05:54:17;94829.25;;;10.32;65.33
56831;BME280;42713;42.676;23.352;2023-04-23T05:56:43;94831.16;;;10.37;65.50
56831;BME280;42713;42.676;23.352;2023-04-23T05:59:08;94830.72;;;10.40;65.76
56831;BME280;42713;42.676;23.352;2023-04-23T06:01:35;94830.25;;;10.43;65.03
56831;BME280;42713;42.676;23.352;2023-04-23T06:04:01;94827.84;;;10.41;65.43
56831;BME280;42713;42.676;23.352;2023-04-23T06:06:26;94837.38;;;10.48;65.35
56831;BME280;42713;42.676;23.352;2023-04-23T06:08:52;94833.81;;;10.54;64.89
56831;BME280;42713;42.676;23.352;2023-04-23T06:11:18;94827.06;;;10.58;65.02
56831;BME280;42713;42.676;23.352;2023-04-23T06:13:45;94830.22;;;10.60;64.80
56831;BME280;42713;42.676;23.352;2023-04-23T06:16:11;94831.59;;;10.63;65.12
56831;BME280;42713;42.676;23.352;2023-04-23T06:18:37;94824.25;;;10.65;64.76
56831;BME280;42713;42.676;23.352;2023-04-23T06:21:03;94825.13;;;10.70;66.00
56831;BME280;42713;42.676;23.352;2023-04-23T06:23:31;94829.19;;;10.78;65.39
56831;BME280;42713;42.676;23.352;2023-04-23T06:25:57;94826.63;;;10.83;65.20
56831;BME280;42713;42.676;23.352;2023-04-23T06:28:23;94820.66;;;10.88;65.23
56831;BME280;42713;42.676;23.352;2023-04-23T06:30:49;94824.66;;;10.90;65.03
56831;BME280;42713;42.676;23.352;2023-04-23T06:33:14;94823.13;;;10.95;65.22
56831;BME280;42713;42.676;23.352;2023-04-23T06:35:39;94820.81;;;10.98;65.02
56831;BME280;42713;42.676;23.352;2023-04-23T06:38:05;94825.00;;;10.99;65.51
56831;BME280;42713;42.676;23.352;2023-04-23T06:40:32;94829.53;;;11.04;64.69
56831;BME280;42713;42.676;23.352;2023-04-23T06:42:57;94821.91;;;11.02;64.62
56831;BME280;42713;42.676;23.352;2023-04-23T06:45:23;94825.41;;;11.08;65.17
56831;BME280;42713;42.676;23.352;2023-04-23T06:47:49;94822.31;;;11.11;64.58
56831;BME280;42713;42.676;23.352;2023-04-23T06:50:15;94819.19;;;11.14;64.67
56831;BME280;42713;42.676;23.352;2023-04-23T06:52:41;94828.16;;;11.18;64.85
56831;BME280;42713;42.676;23.352;2023-04-23T06:55:07;94821.38;;;11.23;64.81
56831;BME280;42713;42.676;23.352;2023-04-23T06:57:33;94822.47;;;11.27;64.66
56831;BME280;42713;42.676;23.352;2023-04-23T06:59:58;94819.69;;;11.33;65.22
56831;BME280;42713;42.676;23.352;2023-04-23T07:02:24;94818.94;;;11.38;65.45
56831;BME280;42713;42.676;23.352;2023-04-23T07:04:50;94822.44;;;11.44;65.18
56831;BME280;42713;42.676;23.352;2023-04-23T07:07:16;94818.50;;;11.46;64.95
56831;BME280;42713;42.676;23.352;2023-04-23T07:09:42;94823.03;;;11.51;64.16
56831;BME280;42713;42.676;23.352;2023-04-23T07:12:08;94824.13;;;11.55;64.77
56831;BME280;42713;42.676;23.352;2023-04-23T07:14:33;94823.63;;;11.58;64.48
56831;BME280;42713;42.676;23.352;2023-04-23T07:16:58;94825.03;;;11.66;65.01
56831;BME280;42713;42.676;23.352;2023-04-23T07:19:24;94821.41;;;11.72;64.78
56831;BME280;42713;42.676;23.352;2023-04-23T07:21:49;94812.03;;;11.76;64.61
56831;BME280;42713;42.676;23.352;2023-04-23T07:24:15;94825.72;;;11.83;63.87
56831;BME280;42713;42.676;23.352;2023-04-23T07:26:41;94820.78;;;11.87;63.81
56831;BME280;42713;42.676;23.352;2023-04-23T07:29:07;94818.22;;;11.92;63.47
56831;BME280;42713;42.676;23.352;2023-04-23T07:31:35;94813.25;;;11.96;63.70
56831;BME280;42713;42.676;23.352;2023-04-23T07:34:01;94819.13;;;12.03;63.82
56831;BME280;42713;42.676;23.352;2023-04-23T07:36:27;94811.81;;;12.10;64.45
56831;BME280;42713;42.676;23.352;2023-04-23T07:38:52;94810.31;;;12.14;63.96
56831;BME280;42713;42.676;23.352;2023-04-23T07:41:18;94811.63;;;12.17;63.06
56831;BME280;42713;42.676;23.352;2023-04-23T07:43:43;94811.44;;;12.24;62.99
56831;BME280;42713;42.676;23.352;2023-04-23T07:46:09;94813.59;;;12.32;62.96
56831;BME280;42713;42.676;23.352;2023-04-23T07:48:34;94819.94;;;12.36;62.30
56831;BME280;42713;42.676;23.352;2023-04-23T07:51:00;94813.38;;;12.39;61.93
56831;BME280;42713;42.676;23.352;2023-04-23T07:53:26;94814.97;;;12.40;62.64
56831;BME280;42713;42.676;23.352;2023-04-23T07:55:53;94810.28;;;12.47;62.23
56831;BME280;42713;42.676;23.352;2023-04-23T07:58:20;94809.00;;;12.50;62.18
56831;BME280;42713;42.676;23.352;2023-04-23T08:00:46;94810.63;;;12.56;62.72
56831;BME280;42713;42.676;23.352;2023-04-23T08:03:11;94810.19;;;12.69;62.13
56831;BME280;42713;42.676;23.352;2023-04-23T08:05:37;94806.03;;;12.79;61.89
56831;BME280;42713;42.676;23.352;2023-04-23T08:08:06;94811.59;;;12.82;61.48
56831;BME280;42713;42.676;23.352;2023-04-23T08:10:33;94816.91;;;12.92;61.81
56831;BME280;42713;42.676;23.352;2023-04-23T08:12:58;94813.28;;;13.04;61.21
56831;BME280;42713;42.676;23.352;2023-04-23T08:15:24;94807.00;;;13.10;60.93
56831;BME280;42713;42.676;23.352;2023-04-23T08:17:49;94804.94;;;13.12;59.79
56831;BME280;42713;42.676;23.352;2023-04-23T08:20:15;94806.28;;;13.25;59.83
56831;BME280;42713;42.676;23.352;2023-04-23T08:22:41;94808.16;;;13.30;59.38
56831;BME280;42713;42.676;23.352;2023-04-23T08:25:07;94807.41;;;13.39;59.25
56831;BME280;42713;42.676;23.352;2023-04-23T08:27:33;94797.75;;;13.50;61.86
56831;BME280;42713;42.676;23.352;2023-04-23T08:29:58;94800.13;;;13.62;59.01
56831;BME280;42713;42.676;23.352;2023-04-23T08:32:23;94799.63;;;13.70;59.52
56831;BME280;42713;42.676;23.352;2023-04-23T08:34:49;94791.75;;;13.76;57.30
56831;BME280;42713;42.676;23.352;2023-04-23T08:37:14;94790.44;;;13.78;57.24
56831;BME280;42713;42.676;23.352;2023-04-23T08:39:40;94789.66;;;13.83;59.56
56831;BME280;42713;42.676;23.352;2023-04-23T08:42:19;94783.63;;;13.98;58.77
56831;BME280;42713;42.676;23.352;2023-04-23T08:44:47;94785.19;;;14.04;57.32
56831;BME280;42713;42.676;23.352;2023-04-23T08:47:16;94777.84;;;14.06;57.00
56831;BME280;42713;42.676;23.352;2023-04-23T08:49:44;94781.50;;;14.05;56.48
56831;BME280;42713;42.676;23.352;2023-04-23T08:52:15;94775.97;;;14.07;57.79
56831;BME280;42713;42.676;23.352;2023-04-23T08:54:44;94772.84;;;14.15;57.93
56831;BME280;42713;42.676;23.352;2023-04-23T08:57:10;94778.63;;;14.17;56.67
56831;BME280;42713;42.676;23.352;2023-04-23T08:59:38;94770.72;;;14.27;56.54
56831;BME280;42713;42.676;23.352;2023-04-23T09:02:04;94773.09;;;14.39;56.74
56831;BME280;42713;42.676;23.352;2023-04-23T09:04:34;94770.47;;;14.39;54.89
56831;BME280;42713;42.676;23.352;2023-04-23T09:07:01;94769.38;;;14.40;55.14
56831;BME280;42713;42.676;23.352;2023-04-23T09:09:28;94768.31;;;14.52;55.83
56831;BME280;42713;42.676;23.352;2023-04-23T09:11:55;94766.50;;;14.62;55.60
56831;BME280;42713;42.676;23.352;2023-04-23T09:14:24;94765.72;;;14.67;55.77
56831;BME280;42713;42.676;23.352;2023-04-23T09:16:50;94763.34;;;14.71;54.44
56831;BME280;42713;42.676;23.352;2023-04-23T09:19:16;94762.53;;;14.75;53.85
56831;BME280;42713;42.676;23.352;2023-04-23T09:21:43;94762.53;;;14.70;53.51
56831;BME280;42713;42.676;23.352;2023-04-23T09:24:09;94760.94;;;14.74;54.08
56831;BME280;42713;42.676;23.352;2023-04-23T09:26:46;94762.25;;;14.77;52.94
56831;BME280;42713;42.676;23.352;2023-04-23T09:29:16;94758.81;;;14.82;53.10
56831;BME280;42713;42.676;23.352;2023-04-23T09:31:47;94758.03;;;14.81;52.56
56831;BME280;42713;42.676;23.352;2023-04-23T09:34:14;94751.44;;;14.89;53.85
56831;BME280;42713;42.676;23.352;2023-04-23T09:36:42;94748.25;;;14.97;54.48
56831;BME280;42713;42.676;23.352;2023-04-23T09:39:13;94742.16;;;15.02;51.72
56831;BME280;42713;42.676;23.352;2023-04-23T09:41:38;94738.91;;;15.15;54.19
56831;BME280;42713;42.676;23.352;2023-04-23T09:44:04;94736.00;;;15.22;53.09
56831;BME280;42713;42.676;23.352;2023-04-23T09:46:37;94737.63;;;15.18;55.37
56831;BME280;42713;42.676;23.352;2023-04-23T09:49:04;94739.41;;;15.33;54.30
56831;BME280;42713;42.676;23.352;2023-04-23T09:51:39;94729.31;;;15.40;52.70
56831;BME280;42713;42.676;23.352;2023-04-23T09:54:21;94729.28;;;15.45;51.92
56831;BME280;42713;42.676;23.352;2023-04-23T09:56:49;94724.75;;;15.51;51.19
56831;BME280;42713;42.676;23.352;2023-04-23T09:59:22;94722.69;;;15.48;50.22
56831;BME280;42713;42.676;23.352;2023-04-23T10:01:48;94718.16;;;15.53;50.17
56831;BME280;42713;42.676;23.352;2023-04-23T10:04:22;94718.94;;;15.54;51.86
56831;BME280;42713;42.676;23.352;2023-04-23T10:06:56;94714.13;;;15.66;50.79
56831;BME280;42713;42.676;23.352;2023-04-23T10:09:23;94713.81;;;15.73;49.57
56831;BME280;42713;42.676;23.352;2023-04-23T10:11:53;94708.50;;;15.78;49.83
56831;BME280;42713;42.676;23.352;2023-04-23T10:14:24;94701.34;;;15.84;50.27
56831;BME280;42713;42.676;23.352;2023-04-23T10:16:51;94694.19;;;15.90;49.90
56831;BME280;42713;42.676;23.352;2023-04-23T10:19:20;94706.38;;;15.80;48.05
56831;BME280;42713;42.676;23.352;2023-04-23T10:21:49;94703.25;;;15.73;47.63
56831;BME280;42713;42.676;23.352;2023-04-23T10:24:18;94696.63;;;15.76;48.93
56831;BME280;42713;42.676;23.352;2023-04-23T10:26:46;94684.69;;;15.89;49.67
56831;BME280;42713;42.676;23.352;2023-04-23T10:29:13;94683.03;;;15.98;48.47
56831;BME280;42713;42.676;23.352;2023-04-23T10:31:44;94685.16;;;15.96;47.92
56831;BME280;42713;42.676;23.352;2023-04-23T10:34:10;94680.31;;;16.03;46.34
56831;BME280;42713;42.676;23.352;2023-04-23T10:36:37;94675.47;;;16.15;47.31
56831;BME280;42713;42.676;23.352;2023-04-23T10:39:03;94677.25;;;16.25;46.46
56831;BME280;42713;42.676;23.352;2023-04-23T10:41:40;94687.47;;;16.32;45.11
56831;BME280;42713;42.676;23.352;2023-04-23T10:44:10;94675.78;;;16.38;46.29
56831;BME280;42713;42.676;23.352;2023-04-23T10:46:36;94671.25;;;16.44;44.59
56831;BME280;42713;42.676;23.352;2023-04-23T10:49:12;94668.22;;;16.56;45.39
56831;BME280;42713;42.676;23.352;2023-04-23T10:51:41;94656.72;;;16.65;43.50
56831;BME280;42713;42.676;23.352;2023-04-23T10:54:10;94654.81;;;16.71;42.43
56831;BME280;42713;42.676;23.352;2023-04-23T10:56:39;94648.75;;;16.71;42.76
56831;BME280;42713;42.676;23.352;2023-04-23T11:01:50;94641.91;;;16.89;42.51
56831;BME280;42713;42.676;23.352;2023-04-23T11:04:26;94638.59;;;17.02;42.18
56831;BME280;42713;42.676;23.352;2023-04-23T11:07:04;94639.81;;;17.29;41.00
56831;BME280;42713;42.676;23.352;2023-04-23T11:12:00;94635.66;;;17.61;39.33
56831;BME280;42713;42.676;23.352;2023-04-23T11:17:10;94627.84;;;18.03;40.82
56831;BME280;42713;42.676;23.352;2023-04-23T11:19:37;94622.38;;;18.27;38.39
56831;BME280;42713;42.676;23.352;2023-04-23T11:22:12;94613.09;;;18.30;36.89
56831;BME280;42713;42.676;23.352;2023-04-23T11:24:40;94608.56;;;18.44;38.46
56831;BME280;42713;42.676;23.352;2023-04-23T11:27:12;94603.44;;;18.48;37.33
56831;BME280;42713;42.676;23.352;2023-04-23T11:29:38;94603.06;;;18.55;36.50
56831;BME280;42713;42.676;23.352;2023-04-23T11:32:05;94610.03;;;18.64;35.07
56831;BME280;42713;42.676;23.352;2023-04-23T11:34:39;94607.38;;;18.64;36.36
56831;BME280;42713;42.676;23.352;2023-04-23T11:37:05;94603.16;;;18.63;37.05
56831;BME280;42713;42.676;23.352;2023-04-23T11:39:30;94595.56;;;18.71;34.98
56831;BME280;42713;42.676;23.352;2023-04-23T11:41:56;94592.94;;;18.71;35.12
56831;BME280;42713;42.676;23.352;2023-04-23T11:44:23;94597.66;;;18.74;34.61
56831;BME280;42713;42.676;23.352;2023-04-23T11:46:49;94586.53;;;18.72;33.90
56831;BME280;42713;42.676;23.352;2023-04-23T11:49:18;94592.94;;;18.71;34.14
56831;BME280;42713;42.676;23.352;2023-04-23T11:51:45;94582.13;;;18.67;32.95
56831;BME280;42713;42.676;23.352;2023-04-23T11:54:11;94580.75;;;18.70;34.00
56831;BME280;42713;42.676;23.352;2023-04-23T11:56:38;94581.13;;;18.77;34.24
56831;BME280;42713;42.676;23.352;2023-04-23T11:59:04;94583.28;;;18.89;34.44
56831;BME280;42713;42.676;23.352;2023-04-23T12:01:49;94579.81;;;19.02;34.51
56831;BME280;42713;42.676;23.352;2023-04-23T12:04:18;94583.41;;;19.20;33.53
56831;BME280;42713;42.676;23.352;2023-04-23T12:06:46;94572.25;;;19.32;31.55
56831;BME280;42713;42.676;23.352;2023-04-23T12:09:13;94570.16;;;19.43;31.69
56831;BME280;42713;42.676;23.352;2023-04-23T12:11:40;94568.94;;;19.49;31.24
56831;BME280;42713;42.676;23.352;2023-04-23T12:14:06;94564.72;;;19.71;31.71
56831;BME280;42713;42.676;23.352;2023-04-23T12:16:46;94575.81;;;19.96;30.71
56831;BME280;42713;42.676;23.352;2023-04-23T12:19:24;94569.19;;;20.16;30.92
56831;BME280;42713;42.676;23.352;2023-04-23T12:21:52;94568.16;;;20.34;29.84
56831;BME280;42713;42.676;23.352;2023-04-23T12:24:29;94564.91;;;20.46;29.63
56831;BME280;42713;42.676;23.352;2023-04-23T12:26:59;94555.66;;;20.44;29.68
56831;BME280;42713;42.676;23.352;2023-04-23T12:29:29;94549.38;;;20.40;28.95
56831;BME280;42713;42.676;23.352;2023-04-23T12:31:57;94552.25;;;20.52;29.48
56831;BME280;42713;42.676;23.352;2023-04-23T12:34:23;94548.03;;;20.60;29.69
56831;BME280;42713;42.676;23.352;2023-04-23T12:36:54;94543.00;;;20.58;29.72
56831;BME280;42713;42.676;23.352;2023-04-23T12:39:28;94535.63;;;20.46;29.71
56831;BME280;42713;42.676;23.352;2023-04-23T12:42:00;94546.06;;;20.34;30.04
56831;BME280;42713;42.676;23.352;2023-04-23T12:44:27;94552.03;;;20.31;30.20
56831;BME280;42713;42.676;23.352;2023-04-23T12:46:58;94537.22;;;20.07;29.53
56831;BME280;42713;42.676;23.352;2023-04-23T12:49:24;94540.47;;;19.95;30.11
56831;BME280;42713;42.676;23.352;2023-04-23T12:51:52;94541.22;;;19.87;30.07
56831;BME280;42713;42.676;23.352;2023-04-23T12:54:17;94544.97;;;19.86;30.00
56831;BME280;42713;42.676;23.352;2023-04-23T12:56:43;94541.72;;;19.75;29.74
56831;BME280;42713;42.676;23.352;2023-04-23T12:59:09;94542.06;;;19.73;30.34